sensor_id;sensor_type;location;lat;lon;timestamp;P1;durP1;ratioP1;P2;durP2;ratioP2
65706;SDS011;52423;43.512;5.220;2023-07-13T00:01:26;3.72;;;3.40;;
65706;SDS011;52423;43.512;5.220;2023-07-13T00:03:52;9.10;;;4.00;;
65706;SDS011;52423;43.512;5.220;2023-07-13T00:06:18;6.75;;;3.78;;
65706;SDS011;52423;43.512;5.220;2023-07-13T00:08:45;6.15;;;3.88;;
65706;SDS011;52423;43.512;5.220;2023-07-13T00:11:10;3.92;;;3.28;;
65706;SDS011;52423;43.512;5.220;2023-07-13T00:13:36;3.78;;;3.45;;
65706;SDS011;52423;43.512;5.220;2023-07-13T00:16:03;7.15;;;3.88;;
65706;SDS011;52423;43.512;5.220;2023-07-13T00:18:28;5.53;;;4.00;;
65706;SDS011;52423;43.512;5.220;2023-07-13T00:20:55;7.05;;;4.63;;
65706;SDS011;52423;43.512;5.220;2023-07-13T00:23:21;6.18;;;4.70;;
65706;SDS011;52423;43.512;5.220;2023-07-13T00:25:46;8.73;;;4.05;;
65706;SDS011;52423;43.512;5.220;2023-07-13T00:28:12;7.57;;;4.20;;
65706;SDS011;52423;43.512;5.220;2023-07-13T00:30:37;5.05;;;3.92;;
65706;SDS011;52423;43.512;5.220;2023-07-13T00:33:03;6.60;;;4.47;;
65706;SDS011;52423;43.512;5.220;2023-07-13T00:35:30;4.82;;;4.15;;
65706;SDS011;52423;43.512;5.220;2023-07-13T00:37:56;7.15;;;4.28;;
65706;SDS011;52423;43.512;5.220;2023-07-13T00:40:21;11.13;;;4.28;;
65706;SDS011;52423;43.512;5.220;2023-07-13T00:42:47;6.30;;;3.97;;
65706;SDS011;52423;43.512;5.220;2023-07-13T00:47:41;5.05;;;4.30;;
65706;SDS011;52423;43.512;5.220;2023-07-13T00:50:07;6.43;;;4.00;;
65706;SDS011;52423;43.512;5.220;2023-07-13T00:52:35;5.78;;;4.43;;
65706;SDS011;52423;43.512;5.220;2023-07-13T00:55:02;7.50;;;4.57;;
65706;SDS011;52423;43.512;5.220;2023-07-13T00:57:28;7.57;;;4.85;;
65706;SDS011;52423;43.512;5.220;2023-07-13T00:59:55;4.43;;;4.03;;
65706;SDS011;52423;43.512;5.220;2023-07-13T01:02:24;5.88;;;4.35;;
65706;SDS011;52423;43.512;5.220;2023-07-13T01:04:50;8.32;;;4.25;;
65706;SDS011;52423;43.512;5.220;2023-07-13T01:07:16;5.35;;;4.35;;
65706;SDS011;52423;43.512;5.220;2023-07-13T01:09:43;9.52;;;5.32;;
65706;SDS011;52423;43.512;5.220;2023-07-13T01:12:10;9.43;;;4.47;;
65706;SDS011;52423;43.512;5.220;2023-07-13T01:14:35;5.35;;;3.88;;
65706;SDS011;52423;43.512;5.220;2023-07-13T01:17:01;7.70;;;4.88;;
65706;SDS011;52423;43.512;5.220;2023-07-13T01:22:12;8.82;;;4.22;;
65706;SDS011;52423;43.512;5.220;2023-07-13T01:24:40;6.88;;;4.10;;
65706;SDS011;52423;43.512;5.220;2023-07-13T01:27:08;5.68;;;4.00;;
65706;SDS011;52423;43.512;5.220;2023-07-13T01:29:35;6.57;;;4.30;;
65706;SDS011;52423;43.512;5.220;2023-07-13T01:32:07;6.22;;;4.32;;
65706;SDS011;52423;43.512;5.220;2023-07-13T01:34:33;6.30;;;4.40;;
65706;SDS011;52423;43.512;5.220;2023-07-13T01:36:59;6.10;;;3.95;;
65706;SDS011;52423;43.512;5.220;2023-07-13T01:39:24;10.63;;;4.55;;
65706;SDS011;52423;43.512;5.220;2023-07-13T01:41:50;5.93;;;4.40;;
65706;SDS011;52423;43.512;5.220;2023-07-13T01:44:15;7.18;;;4.40;;
65706;SDS011;52423;43.512;5.220;2023-07-13T01:46:40;5.38;;;4.88;;
65706;SDS011;52423;43.512;5.220;2023-07-13T01:49:06;7.25;;;4.40;;
65706;SDS011;52423;43.512;5.220;2023-07-13T01:51:31;6.82;;;3.80;;
65706;SDS011;52423;43.512;5.220;2023-07-13T01:53:57;5.65;;;4.15;;
65706;SDS011;52423;43.512;5.220;2023-07-13T01:56:22;6.10;;;4.18;;
65706;SDS011;52423;43.512;5.220;2023-07-13T01:58:47;7.47;;;4.03;;
65706;SDS011;52423;43.512;5.220;2023-07-13T02:01:13;8.68;;;4.18;;
65706;SDS011;52423;43.512;5.220;2023-07-13T02:03:38;6.63;;;4.00;;
65706;SDS011;52423;43.512;5.220;2023-07-13T02:06:04;7.25;;;3.95;;
65706;SDS011;52423;43.512;5.220;2023-07-13T02:08:30;8.02;;;4.05;;
65706;SDS011;52423;43.512;5.220;2023-07-13T02:10:57;4.85;;;3.60;;
65706;SDS011;52423;43.512;5.220;2023-07-13T02:13:22;7.07;;;3.78;;
65706;SDS011;52423;43.512;5.220;2023-07-13T02:15:49;6.40;;;3.42;;
65706;SDS011;52423;43.512;5.220;2023-07-13T02:18:15;5.45;;;3.90;;
65706;SDS011;52423;43.512;5.220;2023-07-13T02:20:42;7.93;;;3.58;;
65706;SDS011;52423;43.512;5.220;2023-07-13T02:23:08;5.32;;;3.40;;
65706;SDS011;52423;43.512;5.220;2023-07-13T02:25:34;5.57;;;3.80;;
65706;SDS011;52423;43.512;5.220;2023-07-13T02:27:59;5.20;;;3.00;;
65706;SDS011;52423;43.512;5.220;2023-07-13T02:30:24;4.88;;;3.30;;
65706;SDS011;52423;43.512;5.220;2023-07-13T02:32:50;6.25;;;3.45;;
65706;SDS011;52423;43.512;5.220;2023-07-13T02:35:15;3.60;;;3.15;;
65706;SDS011;52423;43.512;5.220;2023-07-13T02:37:41;4.93;;;3.15;;
65706;SDS011;52423;43.512;5.220;2023-07-13T02:40:06;8.02;;;3.03;;
65706;SDS011;52423;43.512;5.220;2023-07-13T02:42:33;6.25;;;3.17;;
65706;SDS011;52423;43.512;5.220;2023-07-13T02:44:59;4.32;;;3.35;;
65706;SDS011;52423;43.512;5.220;2023-07-13T02:47:25;6.45;;;2.92;;
65706;SDS011;52423;43.512;5.220;2023-07-13T02:49:51;5.30;;;2.75;;
65706;SDS011;52423;43.512;5.220;2023-07-13T02:52:17;3.80;;;3.10;;
65706;SDS011;52423;43.512;5.220;2023-07-13T02:54:42;7.47;;;3.13;;
65706;SDS011;52423;43.512;5.220;2023-07-13T02:57:08;4.13;;;2.58;;
65706;SDS011;52423;43.512;5.220;2023-07-13T02:59:33;3.40;;;2.40;;
65706;SDS011;52423;43.512;5.220;2023-07-13T03:02:00;4.55;;;2.88;;
65706;SDS011;52423;43.512;5.220;2023-07-13T03:04:26;3.85;;;2.78;;
65706;SDS011;52423;43.512;5.220;2023-07-13T03:06:52;8.50;;;2.67;;
65706;SDS011;52423;43.512;5.220;2023-07-13T03:09:17;3.92;;;2.42;;
65706;SDS011;52423;43.512;5.220;2023-07-13T03:11:42;6.47;;;3.15;;
65706;SDS011;52423;43.512;5.220;2023-07-13T03:14:08;5.05;;;2.58;;
65706;SDS011;52423;43.512;5.220;2023-07-13T03:16:33;6.25;;;2.58;;
65706;SDS011;52423;43.512;5.220;2023-07-13T03:18:59;4.18;;;2.22;;
65706;SDS011;52423;43.512;5.220;2023-07-13T03:21:24;6.70;;;2.90;;
65706;SDS011;52423;43.512;5.220;2023-07-13T03:23:50;4.03;;;2.53;;
65706;SDS011;52423;43.512;5.220;2023-07-13T03:26:19;8.68;;;2.92;;
65706;SDS011;52423;43.512;5.220;2023-07-13T03:28:45;2.63;;;2.20;;
65706;SDS011;52423;43.512;5.220;2023-07-13T03:31:18;7.30;;;2.40;;
65706;SDS011;52423;43.512;5.220;2023-07-13T03:33:45;2.63;;;2.38;;
65706;SDS011;52423;43.512;5.220;2023-07-13T03:36:13;8.18;;;3.47;;
65706;SDS011;52423;43.512;5.220;2023-07-13T03:38:44;4.60;;;2.08;;
65706;SDS011;52423;43.512;5.220;2023-07-13T03:41:11;3.25;;;2.17;;
65706;SDS011;52423;43.512;5.220;2023-07-13T03:43:36;5.88;;;2.45;;
65706;SDS011;52423;43.512;5.220;2023-07-13T03:46:02;4.78;;;2.45;;
65706;SDS011;52423;43.512;5.220;2023-07-13T03:48:27;2.97;;;2.40;;
65706;SDS011;52423;43.512;5.220;2023-07-13T03:50:53;4.43;;;2.17;;
65706;SDS011;52423;43.512;5.220;2023-07-13T03:53:18;5.40;;;2.33;;
65706;SDS011;52423;43.512;5.220;2023-07-13T03:55:44;4.28;;;2.60;;
65706;SDS011;52423;43.512;5.220;2023-07-13T04:00:55;4.05;;;2.10;;
65706;SDS011;52423;43.512;5.220;2023-07-13T04:03:22;7.07;;;2.50;;
65706;SDS011;52423;43.512;5.220;2023-07-13T04:05:48;5.47;;;2.42;;
65706;SDS011;52423;43.512;5.220;2023-07-13T04:08:13;6.03;;;1.90;;
65706;SDS011;52423;43.512;5.220;2023-07-13T04:10:39;3.28;;;2.15;;
65706;SDS011;52423;43.512;5.220;2023-07-13T04:13:05;5.40;;;2.65;;
65706;SDS011;52423;43.512;5.220;2023-07-13T04:15:31;6.20;;;2.47;;
65706;SDS011;52423;43.512;5.220;2023-07-13T04:17:57;4.45;;;2.20;;
65706;SDS011;52423;43.512;5.220;2023-07-13T04:20:22;6.55;;;2.28;;
65706;SDS011;52423;43.512;5.220;2023-07-13T04:22:49;6.18;;;2.75;;
65706;SDS011;52423;43.512;5.220;2023-07-13T04:25:15;4.18;;;2.47;;
65706;SDS011;52423;43.512;5.220;2023-07-13T04:27:40;4.88;;;2.30;;
65706;SDS011;52423;43.512;5.220;2023-07-13T04:30:06;4.40;;;2.22;;
65706;SDS011;52423;43.512;5.220;2023-07-13T04:32:32;5.85;;;1.98;;
65706;SDS011;52423;43.512;5.220;2023-07-13T04:34:57;3.85;;;2.70;;
65706;SDS011;52423;43.512;5.220;2023-07-13T04:37:24;4.13;;;2.72;;
65706;SDS011;52423;43.512;5.220;2023-07-13T04:39:50;3.88;;;2.40;;
65706;SDS011;52423;43.512;5.220;2023-07-13T04:42:15;3.63;;;2.05;;
65706;SDS011;52423;43.512;5.220;2023-07-13T04:44:41;8.63;;;2.10;;
65706;SDS011;52423;43.512;5.220;2023-07-13T04:47:07;5.97;;;3.38;;
65706;SDS011;52423;43.512;5.220;2023-07-13T04:49:32;3.13;;;1.90;;
65706;SDS011;52423;43.512;5.220;2023-07-13T04:51:58;3.28;;;2.05;;
65706;SDS011;52423;43.512;5.220;2023-07-13T04:54:23;3.75;;;2.40;;
65706;SDS011;52423;43.512;5.220;2023-07-13T04:56:48;5.28;;;2.10;;
65706;SDS011;52423;43.512;5.220;2023-07-13T04:59:14;3.78;;;1.80;;
65706;SDS011;52423;43.512;5.220;2023-07-13T05:01:39;4.63;;;1.92;;
65706;SDS011;52423;43.512;5.220;2023-07-13T05:04:05;4.40;;;2.20;;
65706;SDS011;52423;43.512;5.220;2023-07-13T05:06:31;6.10;;;2.38;;
65706;SDS011;52423;43.512;5.220;2023-07-13T05:08:57;8.23;;;2.72;;
65706;SDS011;52423;43.512;5.220;2023-07-13T05:11:23;2.72;;;2.13;;
65706;SDS011;52423;43.512;5.220;2023-07-13T05:13:48;6.60;;;2.00;;
65706;SDS011;52423;43.512;5.220;2023-07-13T05:16:14;4.22;;;2.15;;
65706;SDS011;52423;43.512;5.220;2023-07-13T05:18:39;3.65;;;2.42;;
65706;SDS011;52423;43.512;5.220;2023-07-13T05:21:05;6.07;;;3.85;;
65706;SDS011;52423;43.512;5.220;2023-07-13T05:23:33;5.40;;;2.25;;
65706;SDS011;52423;43.512;5.220;2023-07-13T05:25:59;4.47;;;1.77;;
65706;SDS011;52423;43.512;5.220;2023-07-13T05:28:25;2.83;;;2.00;;
65706;SDS011;52423;43.512;5.220;2023-07-13T05:30:51;4.43;;;2.15;;
65706;SDS011;52423;43.512;5.220;2023-07-13T05:33:17;10.70;;;2.10;;
65706;SDS011;52423;43.512;5.220;2023-07-13T05:35:43;2.50;;;2.28;;
65706;SDS011;52423;43.512;5.220;2023-07-13T05:38:08;1.85;;;1.67;;
65706;SDS011;52423;43.512;5.220;2023-07-13T05:40:33;3.58;;;2.03;;
65706;SDS011;52423;43.512;5.220;2023-07-13T05:42:59;1.50;;;1.40;;
65706;SDS011;52423;43.512;5.220;2023-07-13T05:45:24;7.55;;;2.40;;
65706;SDS011;52423;43.512;5.220;2023-07-13T05:47:51;5.30;;;1.92;;
65706;SDS011;52423;43.512;5.220;2023-07-13T05:50:16;6.80;;;1.90;;
65706;SDS011;52423;43.512;5.220;2023-07-13T05:52:41;4.43;;;1.92;;
65706;SDS011;52423;43.512;5.220;2023-07-13T05:55:07;3.70;;;2.03;;
65706;SDS011;52423;43.512;5.220;2023-07-13T05:57:33;2.72;;;1.67;;
65706;SDS011;52423;43.512;5.220;2023-07-13T05:59:58;4.05;;;1.77;;
65706;SDS011;52423;43.512;5.220;2023-07-13T06:02:24;2.33;;;1.63;;
65706;SDS011;52423;43.512;5.220;2023-07-13T06:04:50;7.78;;;1.80;;
65706;SDS011;52423;43.512;5.220;2023-07-13T06:07:16;4.55;;;1.95;;
65706;SDS011;52423;43.512;5.220;2023-07-13T06:09:41;6.00;;;2.22;;
65706;SDS011;52423;43.512;5.220;2023-07-13T06:12:06;4.45;;;1.50;;
65706;SDS011;52423;43.512;5.220;2023-07-13T06:14:32;3.40;;;1.95;;
65706;SDS011;52423;43.512;5.220;2023-07-13T06:16:58;2.78;;;1.80;;
65706;SDS011;52423;43.512;5.220;2023-07-13T06:19:23;3.42;;;1.50;;
65706;SDS011;52423;43.512;5.220;2023-07-13T06:21:49;7.03;;;2.03;;
65706;SDS011;52423;43.512;5.220;2023-07-13T06:24:14;7.90;;;1.80;;
65706;SDS011;52423;43.512;5.220;2023-07-13T06:26:39;2.28;;;1.48;;
65706;SDS011;52423;43.512;5.220;2023-07-13T06:29:05;4.32;;;2.05;;
65706;SDS011;52423;43.512;5.220;2023-07-13T06:31:30;7.05;;;2.65;;
65706;SDS011;52423;43.512;5.220;2023-07-13T06:33:56;7.22;;;1.55;;
65706;SDS011;52423;43.512;5.220;2023-07-13T06:36:21;4.80;;;1.70;;
65706;SDS011;52423;43.512;5.220;2023-07-13T06:38:47;5.93;;;1.58;;
65706;SDS011;52423;43.512;5.220;2023-07-13T06:41:12;2.70;;;1.58;;
65706;SDS011;52423;43.512;5.220;2023-07-13T06:43:38;3.90;;;1.38;;
65706;SDS011;52423;43.512;5.220;2023-07-13T06:46:03;6.78;;;1.50;;
65706;SDS011;52423;43.512;5.220;2023-07-13T06:48:29;6.60;;;1.38;;
65706;SDS011;52423;43.512;5.220;2023-07-13T06:50:55;6.25;;;1.35;;
65706;SDS011;52423;43.512;5.220;2023-07-13T06:53:21;4.20;;;1.30;;
65706;SDS011;52423;43.512;5.220;2023-07-13T06:55:47;12.00;;;1.58;;
65706;SDS011;52423;43.512;5.220;2023-07-13T06:58:14;8.38;;;1.58;;
65706;SDS011;52423;43.512;5.220;2023-07-13T07:00:41;6.18;;;1.60;;
65706;SDS011;52423;43.512;5.220;2023-07-13T07:03:06;8.57;;;1.73;;
65706;SDS011;52423;43.512;5.220;2023-07-13T07:05:32;5.82;;;1.45;;
65706;SDS011;52423;43.512;5.220;2023-07-13T07:07:58;5.55;;;1.98;;
65706;SDS011;52423;43.512;5.220;2023-07-13T07:10:23;6.22;;;1.23;;
65706;SDS011;52423;43.512;5.220;2023-07-13T07:12:49;3.53;;;1.40;;
65706;SDS011;52423;43.512;5.220;2023-07-13T07:15:14;4.22;;;1.23;;
65706;SDS011;52423;43.512;5.220;2023-07-13T07:17:40;4.55;;;1.58;;
65706;SDS011;52423;43.512;5.220;2023-07-13T07:20:05;6.38;;;1.33;;
65706;SDS011;52423;43.512;5.220;2023-07-13T07:22:32;4.10;;;1.30;;
65706;SDS011;52423;43.512;5.220;2023-07-13T07:24:58;5.78;;;1.30;;
65706;SDS011;52423;43.512;5.220;2023-07-13T07:27:23;13.35;;;1.35;;
65706;SDS011;52423;43.512;5.220;2023-07-13T07:29:49;5.07;;;1.70;;
65706;SDS011;52423;43.512;5.220;2023-07-13T07:32:15;5.18;;;1.35;;
65706;SDS011;52423;43.512;5.220;2023-07-13T07:34:41;14.15;;;1.25;;
65706;SDS011;52423;43.512;5.220;2023-07-13T07:37:06;6.10;;;1.50;;
65706;SDS011;52423;43.512;5.220;2023-07-13T07:39:35;5.05;;;1.33;;
65706;SDS011;52423;43.512;5.220;2023-07-13T07:42:01;4.85;;;1.50;;
65706;SDS011;52423;43.512;5.220;2023-07-13T07:44:26;1.77;;;1.33;;
65706;SDS011;52423;43.512;5.220;2023-07-13T07:46:53;1.85;;;1.10;;
65706;SDS011;52423;43.512;5.220;2023-07-13T07:49:19;9.55;;;1.40;;
65706;SDS011;52423;43.512;5.220;2023-07-13T07:51:45;22.13;;;1.88;;
65706;SDS011;52423;43.512;5.220;2023-07-13T07:54:10;5.00;;;1.60;;
65706;SDS011;52423;43.512;5.220;2023-07-13T07:56:36;4.45;;;1.10;;
65706;SDS011;52423;43.512;5.220;2023-07-13T07:59:01;9.52;;;1.58;;
65706;SDS011;52423;43.512;5.220;2023-07-13T08:01:27;7.90;;;1.30;;
65706;SDS011;52423;43.512;5.220;2023-07-13T08:03:52;13.10;;;1.50;;
65706;SDS011;52423;43.512;5.220;2023-07-13T08:06:18;5.65;;;1.17;;
65706;SDS011;52423;43.512;5.220;2023-07-13T08:08:44;6.78;;;1.20;;
65706;SDS011;52423;43.512;5.220;2023-07-13T08:11:10;11.50;;;1.65;;
65706;SDS011;52423;43.512;5.220;2023-07-13T08:13:36;5.18;;;1.48;;
65706;SDS011;52423;43.512;5.220;2023-07-13T08:16:03;6.30;;;1.20;;
65706;SDS011;52423;43.512;5.220;2023-07-13T08:18:30;5.80;;;1.30;;
65706;SDS011;52423;43.512;5.220;2023-07-13T08:20:55;2.40;;;1.17;;
65706;SDS011;52423;43.512;5.220;2023-07-13T08:23:24;5.00;;;1.52;;
65706;SDS011;52423;43.512;5.220;2023-07-13T08:25:51;6.50;;;1.20;;
65706;SDS011;52423;43.512;5.220;2023-07-13T08:28:19;1.45;;;0.95;;
65706;SDS011;52423;43.512;5.220;2023-07-13T08:30:45;3.58;;;0.75;;
65706;SDS011;52423;43.512;5.220;2023-07-13T08:33:14;9.05;;;1.20;;
65706;SDS011;52423;43.512;5.220;2023-07-13T08:35:46;5.00;;;1.20;;
65706;SDS011;52423;43.512;5.220;2023-07-13T08:38:13;3.40;;;1.30;;
65706;SDS011;52423;43.512;5.220;2023-07-13T08:40:39;7.43;;;1.35;;
65706;SDS011;52423;43.512;5.220;2023-07-13T08:43:07;6.15;;;1.10;;
65706;SDS011;52423;43.512;5.220;2023-07-13T08:45:57;2.55;;;1.17;;
65706;SDS011;52423;43.512;5.220;2023-07-13T08:48:31;3.03;;;1.00;;
65706;SDS011;52423;43.512;5.220;2023-07-13T08:53:54;4.43;;;1.10;;
65706;SDS011;52423;43.512;5.220;2023-07-13T08:56:25;11.13;;;1.10;;
65706;SDS011;52423;43.512;5.220;2023-07-13T08:58:55;6.07;;;0.60;;
65706;SDS011;52423;43.512;5.220;2023-07-13T09:04:20;8.63;;;0.88;;
65706;SDS011;52423;43.512;5.220;2023-07-13T09:09:49;4.40;;;1.23;;
65706;SDS011;52423;43.512;5.220;2023-07-13T09:12:27;2.78;;;1.20;;
65706;SDS011;52423;43.512;5.220;2023-07-13T09:15:02;11.25;;;1.20;;
65706;SDS011;52423;43.512;5.220;2023-07-13T09:17:33;5.22;;;1.02;;
65706;SDS011;52423;43.512;5.220;2023-07-13T09:25:19;13.88;;;1.33;;
65706;SDS011;52423;43.512;5.220;2023-07-13T09:27:49;3.67;;;0.82;;
65706;SDS011;52423;43.512;5.220;2023-07-13T09:30:23;9.32;;;1.15;;
65706;SDS011;52423;43.512;5.220;2023-07-13T09:32:56;7.32;;;1.15;;
65706;SDS011;52423;43.512;5.220;2023-07-13T09:35:25;9.48;;;0.80;;
65706;SDS011;52423;43.512;5.220;2023-07-13T09:37:56;16.20;;;0.95;;
65706;SDS011;52423;43.512;5.220;2023-07-13T09:40:49;4.45;;;0.98;;
65706;SDS011;52423;43.512;5.220;2023-07-13T09:43:18;23.23;;;1.75;;
65706;SDS011;52423;43.512;5.220;2023-07-13T09:45:46;8.38;;;1.05;;
65706;SDS011;52423;43.512;5.220;2023-07-13T09:48:15;2.13;;;0.80;;
65706;SDS011;52423;43.512;5.220;2023-07-13T09:50:42;7.40;;;1.50;;
65706;SDS011;52423;43.512;5.220;2023-07-13T09:53:16;4.43;;;1.10;;
65706;SDS011;52423;43.512;5.220;2023-07-13T09:55:44;3.92;;;0.70;;
65706;SDS011;52423;43.512;5.220;2023-07-13T10:00:36;9.30;;;1.10;;
65706;SDS011;52423;43.512;5.220;2023-07-13T10:05:44;3.90;;;1.00;;
65706;SDS011;52423;43.512;5.220;2023-07-13T10:10:43;1.52;;;0.68;;
65706;SDS011;52423;43.512;5.220;2023-07-13T10:13:26;4.60;;;0.93;;
65706;SDS011;52423;43.512;5.220;2023-07-13T10:15:55;2.28;;;0.60;;
65706;SDS011;52423;43.512;5.220;2023-07-13T10:18:21;7.68;;;0.80;;
65706;SDS011;52423;43.512;5.220;2023-07-13T10:20:48;4.10;;;0.80;;
65706;SDS011;52423;43.512;5.220;2023-07-13T10:23:20;0.57;;;0.57;;
65706;SDS011;52423;43.512;5.220;2023-07-13T10:25:50;6.57;;;1.08;;
65706;SDS011;52423;43.512;5.220;2023-07-13T10:28:27;0.70;;;0.70;;
65706;SDS011;52423;43.512;5.220;2023-07-13T10:31:02;3.83;;;1.02;;
65706;SDS011;52423;43.512;5.220;2023-07-13T10:33:36;10.60;;;0.90;;
65706;SDS011;52423;43.512;5.220;2023-07-13T10:39:00;5.45;;;1.23;;
65706;SDS011;52423;43.512;5.220;2023-07-13T10:41:27;4.63;;;0.57;;
65706;SDS011;52423;43.512;5.220;2023-07-13T10:43:56;0.80;;;0.80;;
65706;SDS011;52423;43.512;5.220;2023-07-13T10:46:23;2.30;;;0.82;;
65706;SDS011;52423;43.512;5.220;2023-07-13T10:48:53;8.75;;;1.00;;
65706;SDS011;52423;43.512;5.220;2023-07-13T10:51:22;2.33;;;0.60;;
65706;SDS011;52423;43.512;5.220;2023-07-13T10:53:48;2.47;;;0.80;;
65706;SDS011;52423;43.512;5.220;2023-07-13T10:56:40;2.35;;;1.02;;
65706;SDS011;52423;43.512;5.220;2023-07-13T11:01:46;1.38;;;0.60;;
65706;SDS011;52423;43.512;5.220;2023-07-13T11:06:40;5.95;;;1.00;;
65706;SDS011;52423;43.512;5.220;2023-07-13T11:11:46;3.17;;;1.17;;
65706;SDS011;52423;43.512;5.220;2023-07-13T11:16:56;9.52;;;1.30;;
65706;SDS011;52423;43.512;5.220;2023-07-13T11:22:09;8.18;;;0.90;;
65706;SDS011;52423;43.512;5.220;2023-07-13T11:27:46;7.88;;;0.77;;
65706;SDS011;52423;43.512;5.220;2023-07-13T11:30:30;4.43;;;0.73;;
65706;SDS011;52423;43.512;5.220;2023-07-13T11:33:04;2.83;;;0.75;;
65706;SDS011;52423;43.512;5.220;2023-07-13T11:35:42;4.72;;;0.90;;
65706;SDS011;52423;43.512;5.220;2023-07-13T11:40:56;2.50;;;0.90;;
65706;SDS011;52423;43.512;5.220;2023-07-13T11:43:23;4.38;;;0.73;;
65706;SDS011;52423;43.512;5.220;2023-07-13T11:45:49;1.15;;;0.70;;
65706;SDS011;52423;43.512;5.220;2023-07-13T11:50:55;5.57;;;0.60;;
65706;SDS011;52423;43.512;5.220;2023-07-13T11:53:24;0.55;;;0.55;;
65706;SDS011;52423;43.512;5.220;2023-07-13T11:55:52;0.80;;;0.60;;
65706;SDS011;52423;43.512;5.220;2023-07-13T11:58:19;3.85;;;0.82;;
65706;SDS011;52423;43.512;5.220;2023-07-13T12:00:49;2.53;;;1.02;;
65706;SDS011;52423;43.512;5.220;2023-07-13T12:03:17;2.55;;;0.80;;
65706;SDS011;52423;43.512;5.220;2023-07-13T12:06:02;6.93;;;1.20;;
65706;SDS011;52423;43.512;5.220;2023-07-13T12:08:31;5.13;;;0.80;;
65706;SDS011;52423;43.512;5.220;2023-07-13T12:11:03;8.98;;;0.90;;
65706;SDS011;52423;43.512;5.220;2023-07-13T12:13:34;4.22;;;1.17;;
65706;SDS011;52423;43.512;5.220;2023-07-13T12:16:02;7.43;;;0.80;;
65706;SDS011;52423;43.512;5.220;2023-07-13T12:18:37;2.83;;;1.00;;
65706;SDS011;52423;43.512;5.220;2023-07-13T12:21:04;1.88;;;0.60;;
65706;SDS011;52423;43.512;5.220;2023-07-13T12:23:31;3.42;;;0.70;;
65706;SDS011;52423;43.512;5.220;2023-07-13T12:26:00;2.72;;;0.85;;
65706;SDS011;52423;43.512;5.220;2023-07-13T12:28:37;0.50;;;0.50;;
65706;SDS011;52423;43.512;5.220;2023-07-13T12:31:25;2.33;;;0.45;;
65706;SDS011;52423;43.512;5.220;2023-07-13T12:33:57;2.92;;;1.60;;
65706;SDS011;52423;43.512;5.220;2023-07-13T12:36:26;4.50;;;0.80;;
65706;SDS011;52423;43.512;5.220;2023-07-13T12:38:57;1.25;;;0.70;;
65706;SDS011;52423;43.512;5.220;2023-07-13T12:41:29;3.30;;;0.70;;
65706;SDS011;52423;43.512;5.220;2023-07-13T12:43:54;1.95;;;0.75;;
65706;SDS011;52423;43.512;5.220;2023-07-13T12:46:20;4.68;;;1.17;;
65706;SDS011;52423;43.512;5.220;2023-07-13T12:48:51;1.05;;;0.90;;
65706;SDS011;52423;43.512;5.220;2023-07-13T12:51:20;1.17;;;0.77;;
65706;SDS011;52423;43.512;5.220;2023-07-13T12:53:48;2.88;;;0.77;;
65706;SDS011;52423;43.512;5.220;2023-07-13T12:56:22;5.97;;;0.70;;
65706;SDS011;52423;43.512;5.220;2023-07-13T12:58:50;1.13;;;0.80;;
65706;SDS011;52423;43.512;5.220;2023-07-13T13:01:22;3.78;;;1.05;;
65706;SDS011;52423;43.512;5.220;2023-07-13T13:03:52;3.03;;;1.00;;
65706;SDS011;52423;43.512;5.220;2023-07-13T13:08:45;1.13;;;0.77;;
65706;SDS011;52423;43.512;5.220;2023-07-13T13:11:13;1.58;;;0.90;;
65706;SDS011;52423;43.512;5.220;2023-07-13T13:13:42;2.97;;;1.08;;
65706;SDS011;52423;43.512;5.220;2023-07-13T13:16:30;2.03;;;1.13;;
65706;SDS011;52423;43.512;5.220;2023-07-13T13:19:15;2.67;;;1.02;;
65706;SDS011;52423;43.512;5.220;2023-07-13T13:21:43;1.60;;;0.93;;
65706;SDS011;52423;43.512;5.220;2023-07-13T13:24:11;1.67;;;0.98;;
65706;SDS011;52423;43.512;5.220;2023-07-13T13:26:38;2.55;;;1.13;;
65706;SDS011;52423;43.512;5.220;2023-07-13T13:29:13;4.47;;;1.10;;
65706;SDS011;52423;43.512;5.220;2023-07-13T13:31:44;1.92;;;1.20;;
65706;SDS011;52423;43.512;5.220;2023-07-13T13:34:10;2.78;;;0.80;;
65706;SDS011;52423;43.512;5.220;2023-07-13T13:36:38;4.78;;;1.10;;
65706;SDS011;52423;43.512;5.220;2023-07-13T13:39:08;11.35;;;1.10;;
65706;SDS011;52423;43.512;5.220;2023-07-13T13:41:44;4.47;;;1.10;;
65706;SDS011;52423;43.512;5.220;2023-07-13T13:44:10;0.80;;;0.80;;
65706;SDS011;52423;43.512;5.220;2023-07-13T13:46:35;4.55;;;1.15;;
65706;SDS011;52423;43.512;5.220;2023-07-13T13:49:02;1.75;;;1.05;;
65706;SDS011;52423;43.512;5.220;2023-07-13T13:51:27;5.90;;;1.00;;
65706;SDS011;52423;43.512;5.220;2023-07-13T13:53:54;4.38;;;1.00;;
65706;SDS011;52423;43.512;5.220;2023-07-13T13:56:20;9.82;;;1.27;;
65706;SDS011;52423;43.512;5.220;2023-07-13T13:58:46;2.83;;;1.17;;
65706;SDS011;52423;43.512;5.220;2023-07-13T14:01:19;4.43;;;1.10;;
65706;SDS011;52423;43.512;5.220;2023-07-13T14:03:47;2.83;;;1.23;;
65706;SDS011;52423;43.512;5.220;2023-07-13T14:06:14;3.30;;;0.93;;
65706;SDS011;52423;43.512;5.220;2023-07-13T14:08:40;2.20;;;1.00;;
65706;SDS011;52423;43.512;5.220;2023-07-13T14:11:07;1.65;;;1.08;;
65706;SDS011;52423;43.512;5.220;2023-07-13T14:13:42;1.75;;;1.10;;
65706;SDS011;52423;43.512;5.220;2023-07-13T14:16:12;2.25;;;0.90;;
65706;SDS011;52423;43.512;5.220;2023-07-13T14:21:19;5.45;;;1.17;;
65706;SDS011;52423;43.512;5.220;2023-07-13T14:23:46;2.50;;;1.15;;
65706;SDS011;52423;43.512;5.220;2023-07-13T14:26:17;4.88;;;1.00;;
65706;SDS011;52423;43.512;5.220;2023-07-13T14:28:47;0.88;;;0.82;;
65706;SDS011;52423;43.512;5.220;2023-07-13T14:31:14;2.78;;;0.95;;
65706;SDS011;52423;43.512;5.220;2023-07-13T14:33:41;5.65;;;0.80;;
65706;SDS011;52423;43.512;5.220;2023-07-13T14:36:21;3.00;;;0.95;;
65706;SDS011;52423;43.512;5.220;2023-07-13T14:38:51;1.55;;;1.10;;
65706;SDS011;52423;43.512;5.220;2023-07-13T14:41:17;4.50;;;1.58;;
65706;SDS011;52423;43.512;5.220;2023-07-13T14:43:42;1.75;;;1.20;;
65706;SDS011;52423;43.512;5.220;2023-07-13T14:46:11;5.78;;;1.23;;
65706;SDS011;52423;43.512;5.220;2023-07-13T14:49:06;2.45;;;1.20;;
65706;SDS011;52423;43.512;5.220;2023-07-13T14:51:51;4.15;;;1.00;;
65706;SDS011;52423;43.512;5.220;2023-07-13T14:54:17;2.88;;;1.23;;
65706;SDS011;52423;43.512;5.220;2023-07-13T14:56:43;5.30;;;1.08;;
65706;SDS011;52423;43.512;5.220;2023-07-13T14:59:08;2.70;;;1.20;;
65706;SDS011;52423;43.512;5.220;2023-07-13T15:01:34;1.40;;;0.95;;
65706;SDS011;52423;43.512;5.220;2023-07-13T15:04:00;2.17;;;1.10;;
65706;SDS011;52423;43.512;5.220;2023-07-13T15:06:27;3.15;;;1.13;;
65706;SDS011;52423;43.512;5.220;2023-07-13T15:08:53;2.05;;;1.20;;
65706;SDS011;52423;43.512;5.220;2023-07-13T15:11:20;3.95;;;1.20;;
65706;SDS011;52423;43.512;5.220;2023-07-13T15:13:47;1.80;;;1.30;;
65706;SDS011;52423;43.512;5.220;2023-07-13T15:16:23;2.70;;;1.20;;
65706;SDS011;52423;43.512;5.220;2023-07-13T15:18:50;4.22;;;1.20;;
65706;SDS011;52423;43.512;5.220;2023-07-13T15:21:20;5.20;;;1.33;;
65706;SDS011;52423;43.512;5.220;2023-07-13T15:23:47;2.85;;;1.10;;
65706;SDS011;52423;43.512;5.220;2023-07-13T15:26:17;2.95;;;1.02;;
65706;SDS011;52423;43.512;5.220;2023-07-13T15:28:44;1.35;;;1.00;;
65706;SDS011;52423;43.512;5.220;2023-07-13T15:31:24;1.35;;;0.95;;
65706;SDS011;52423;43.512;5.220;2023-07-13T15:36:18;2.17;;;1.27;;
65706;SDS011;52423;43.512;5.220;2023-07-13T15:38:45;1.92;;;1.30;;
65706;SDS011;52423;43.512;5.220;2023-07-13T15:43:52;1.70;;;1.00;;
65706;SDS011;52423;43.512;5.220;2023-07-13T15:46:20;1.35;;;1.17;;
65706;SDS011;52423;43.512;5.220;2023-07-13T15:48:51;1.20;;;0.93;;
65706;SDS011;52423;43.512;5.220;2023-07-13T15:51:24;3.15;;;1.08;;
65706;SDS011;52423;43.512;5.220;2023-07-13T15:53:55;5.32;;;1.23;;
65706;SDS011;52423;43.512;5.220;2023-07-13T15:56:27;2.83;;;1.30;;